Time;durP1;ratioP1;P1;durP2;ratioP2;P2;SDS_P1;SDS_P2;PMS_P1;PMS_P2;Temp;Humidity;BMP_temperature;BMP_pressure;BME280_temperature;BME280_humidity;BME280_pressure;Samples;Min_cycle;Max_cycle;Signal;HPM_P1;HPM_P2
2023/10/08 00:02:25;;;;;;;9.63;5.70;;;20.20;48.10;;;;;;5048773;28;20435;-49
2023/10/08 00:04:51;;;;;;;6.60;5.50;;;20.30;47.80;;;;;;5047267;28;20920;-49
2023/10/08 00:07:21;;;;;;;9.40;6.37;;;20.30;47.80;;;;;;5044057;28;20486;-50
2023/10/08 00:09:53;;;;;;;6.47;5.40;;;20.30;47.60;;;;;;5036749;28;20521;-49
2023/10/08 00:12:19;;;;;;;6.47;5.37;;;20.20;47.60;;;;;;5046077;28;20790;-49
2023/10/08 00:14:53;;;;;;;8.10;6.07;;;20.20;48.40;;;;;;5041526;28;20492;-47
2023/10/08 00:17:19;;;;;;;8.23;6.23;;;20.20;49.00;;;;;;5033818;28;20462;-46
2023/10/08 00:19:45;;;;;;;9.30;6.53;;;20.20;49.70;;;;;;5041982;28;20459;-50
2023/10/08 00:22:12;;;;;;;12.83;6.67;;;20.20;49.90;;;;;;5040187;28;20188;-49
2023/10/08 00:24:40;;;;;;;8.17;6.90;;;20.20;50.00;;;;;;5048468;28;20447;-48
2023/10/08 00:27:07;;;;;;;8.20;6.10;;;20.20;50.10;;;;;;5050401;28;20471;-46
2023/10/08 00:29:32;;;;;;;8.27;6.60;;;20.20;50.10;;;;;;5045686;28;20451;-49
2023/10/08 00:31:58;;;;;;;8.30;6.30;;;20.20;49.70;;;;;;5048863;28;20439;-51
2023/10/08 00:34:24;;;;;;;8.30;5.57;;;20.20;49.60;;;;;;5049984;28;20293;-46
2023/10/08 00:36:50;;;;;;;8.17;5.30;;;20.20;49.60;;;;;;5050438;28;20608;-46
2023/10/08 00:39:23;;;;;;;10.60;5.93;;;20.20;49.30;;;;;;5047718;28;20463;-50
2023/10/08 00:41:50;;;;;;;8.00;5.80;;;20.30;49.10;;;;;;5037116;28;20476;-45
2023/10/08 00:44:22;;;;;;;7.30;5.87;;;20.30;48.90;;;;;;5048841;28;20934;-46
2023/10/08 00:46:49;;;;;;;9.73;5.50;;;20.20;48.50;;;;;;5049754;28;20479;-49
2023/10/08 00:55:06;;;;;;;10.40;5.53;;;20.20;48.40;;;;;;5044000;28;21115;-45
2023/10/08 00:57:28;;;;;;;6.67;4.90;;;20.30;48.40;;;;;;5044030;28;20501;-51
2023/10/08 00:59:55;;;;;;;7.00;4.50;;;20.30;48.20;;;;;;5039169;28;20514;-47
2023/10/08 01:02:27;;;;;;;6.93;4.90;;;20.30;48.00;;;;;;5048885;28;20453;-47
2023/10/08 01:04:54;;;;;;;5.93;4.20;;;20.30;47.80;;;;;;5048901;28;20450;-48
2023/10/08 01:07:21;;;;;;;8.47;5.30;;;20.30;47.70;;;;;;5048328;28;20520;-46
2023/10/08 01:09:51;;;;;;;9.03;4.60;;;20.30;47.50;;;;;;5053429;28;20926;-49
2023/10/08 01:12:44;;;;;;;8.07;5.43;;;20.30;47.30;;;;;;5051024;28;20444;-50
2023/10/08 01:15:19;;;;;;;7.27;4.83;;;20.30;47.50;;;;;;5052127;28;20514;-46
2023/10/08 01:17:58;;;;;;;7.67;5.33;;;20.10;48.40;;;;;;5046086;28;20473;-49
2023/10/08 01:20:48;;;;;;;6.30;5.37;;;20.10;48.60;;;;;;5052270;28;20830;-49
2023/10/08 01:23:16;;;;;;;7.83;5.30;;;20.00;49.50;;;;;;5049772;28;20492;-49
2023/10/08 01:25:56;;;;;;;9.00;5.37;;;19.90;49.50;;;;;;5049248;28;20443;-49
2023/10/08 01:28:28;;;;;;;5.40;4.30;;;19.90;49.70;;;;;;5045729;28;20582;-46
2023/10/08 01:30:57;;;;;;;7.00;4.80;;;19.90;50.30;;;;;;5052180;28;20888;-46
2023/10/08 01:33:23;;;;;;;7.00;4.67;;;20.00;49.70;;;;;;5053218;28;20450;-49
2023/10/08 01:35:49;;;;;;;6.70;4.43;;;20.00;49.60;;;;;;5047501;28;20542;-46
2023/10/08 01:38:23;;;;;;;6.10;5.00;;;20.00;49.90;;;;;;5047036;28;20546;-46
2023/10/08 01:40:52;;;;;;;9.00;5.00;;;19.90;49.00;;;;;;5053806;28;20223;-47
2023/10/08 01:43:18;;;;;;;5.40;4.43;;;19.90;49.00;;;;;;5046179;28;20446;-46
2023/10/08 01:45:48;;;;;;;6.27;4.80;;;19.90;49.00;;;;;;5049885;28;20453;-49
2023/10/08 01:48:19;;;;;;;10.33;6.50;;;20.00;49.30;;;;;;5049662;28;21008;-46
2023/10/08 01:50:47;;;;;;;7.00;5.40;;;20.00;49.70;;;;;;5050540;28;20533;-46
2023/10/08 01:53:15;;;;;;;7.83;5.50;;;20.00;50.00;;;;;;5042531;28;20578;-47
2023/10/08 01:55:49;;;;;;;8.20;6.30;;;20.00;50.30;;;;;;5046418;28;20854;-47
2023/10/08 01:58:18;;;;;;;8.03;5.87;;;20.00;50.60;;;;;;5051306;28;20449;-47
2023/10/08 02:00:45;;;;;;;8.37;5.97;;;20.00;50.70;;;;;;5046307;28;20438;-47
2023/10/08 02:03:13;;;;;;;8.00;5.40;;;20.00;50.80;;;;;;5049572;28;20773;-47
2023/10/08 02:05:41;;;;;;;8.40;5.60;;;19.90;50.80;;;;;;5049510;28;20447;-46
2023/10/08 02:08:10;;;;;;;7.10;6.20;;;19.90;50.90;;;;;;5053064;28;20487;-46
2023/10/08 02:10:38;;;;;;;11.70;6.47;;;19.90;50.70;;;;;;5051118;28;20494;-47
2023/10/08 02:13:04;;;;;;;7.60;5.80;;;19.80;50.70;;;;;;5049552;28;20950;-48
2023/10/08 02:15:30;;;;;;;9.00;6.20;;;19.70;50.80;;;;;;5049578;28;20888;-47
2023/10/08 02:17:56;;;;;;;6.00;4.93;;;19.70;50.90;;;;;;5049102;28;20582;-49
2023/10/08 02:20:22;;;;;;;8.63;6.20;;;19.60;50.90;;;;;;5046269;28;20239;-47
2023/10/08 02:22:51;;;;;;;8.70;6.00;;;19.60;51.10;;;;;;5049382;28;20474;-46
2023/10/08 02:25:16;;;;;;;8.53;6.00;;;19.60;51.20;;;;;;5046319;28;20575;-50
2023/10/08 02:27:42;;;;;;;7.43;5.37;;;19.60;51.30;;;;;;5048550;28;20513;-46
2023/10/08 02:30:10;;;;;;;8.97;6.10;;;19.60;51.30;;;;;;5050630;28;20201;-46
2023/10/08 02:32:36;;;;;;;10.20;6.23;;;19.60;51.20;;;;;;5050569;28;20567;-45
2023/10/08 02:35:03;;;;;;;8.23;6.10;;;19.60;51.30;;;;;;5044599;28;20446;-47
2023/10/08 02:37:28;;;;;;;7.47;5.37;;;19.60;51.50;;;;;;5039798;28;20486;-46
2023/10/08 02:39:54;;;;;;;7.70;5.53;;;19.50;51.40;;;;;;5041321;28;20499;-46
2023/10/08 02:42:21;;;;;;;6.97;5.13;;;19.50;51.50;;;;;;5047703;28;20217;-48
2023/10/08 02:44:47;;;;;;;6.73;5.53;;;19.40;51.40;;;;;;5047509;28;20533;-47
2023/10/08 02:47:20;;;;;;;7.13;5.30;;;19.40;51.40;;;;;;5046278;28;20605;-46
2023/10/08 02:49:48;;;;;;;6.60;4.60;;;19.30;51.50;;;;;;5052470;28;20691;-46
2023/10/08 02:52:15;;;;;;;8.27;6.07;;;19.30;51.80;;;;;;5052715;28;20438;-50
2023/10/08 02:54:41;;;;;;;9.90;5.47;;;19.30;51.70;;;;;;5046969;28;20450;-49
2023/10/08 02:57:14;;;;;;;11.77;5.87;;;19.20;51.40;;;;;;5042359;28;20435;-46
2023/10/08 02:59:40;;;;;;;7.20;5.40;;;19.20;51.90;;;;;;5052247;28;20458;-48
2023/10/08 03:02:18;;;;;;;8.50;5.90;;;19.20;52.20;;;;;;5049687;28;20999;-46
2023/10/08 03:04:45;;;;;;;7.70;5.53;;;19.20;52.50;;;;;;5046531;28;20454;-46
2023/10/08 03:07:31;;;;;;;7.30;5.50;;;19.00;52.90;;;;;;5048647;28;20475;-50
2023/10/08 03:10:06;;;;;;;10.80;5.77;;;18.80;53.80;;;;;;5042869;28;20455;-45
2023/10/08 03:12:35;;;;;;;8.57;5.60;;;18.90;53.80;;;;;;5048984;28;20442;-48
2023/10/08 03:15:12;;;;;;;7.00;5.23;;;18.90;53.80;;;;;;5049080;28;20443;-49
2023/10/08 03:17:48;;;;;;;9.10;5.67;;;18.80;53.80;;;;;;5050902;28;20450;-47
2023/10/08 03:23:23;;;;;;;6.53;5.07;;;18.90;53.10;;;;;;4970117;28;20450;-47
2023/10/08 03:26:10;;;;;;;9.23;5.73;;;18.90;53.00;;;;;;5029808;28;20536;-47
2023/10/08 03:28:37;;;;;;;9.90;5.67;;;18.80;53.00;;;;;;5047026;28;20482;-47
2023/10/08 03:31:13;;;;;;;9.07;5.30;;;18.80;53.00;;;;;;5049517;28;20442;-50
2023/10/08 03:33:39;;;;;;;8.57;5.87;;;18.70;53.30;;;;;;5049760;28;20454;-48
2023/10/08 03:36:14;;;;;;;6.20;5.07;;;18.70;53.30;;;;;;5039305;28;20455;-48
2023/10/08 03:39:10;;;;;;;11.83;6.00;;;18.70;53.10;;;;;;5048314;28;20453;-48
2023/10/08 03:41:32;;;;;;;8.30;5.50;;;18.70;53.00;;;;;;5048856;28;20496;-46
2023/10/08 03:44:12;;;;;;;6.90;5.30;;;18.70;53.00;;;;;;5050270;28;20914;-48
2023/10/08 03:46:42;;;;;;;7.63;5.30;;;18.70;53.00;;;;;;5043439;28;20450;-46
2023/10/08 03:49:24;;;;;;;7.20;4.83;;;18.70;53.10;;;;;;5051210;28;20443;-46
2023/10/08 03:51:57;;;;;;;7.27;5.40;;;18.70;53.10;;;;;;5047025;28;20443;-50
2023/10/08 03:54:29;;;;;;;6.87;5.27;;;18.60;53.00;;;;;;5038458;28;20481;-47
2023/10/08 03:56:56;;;;;;;5.67;5.03;;;18.60;52.90;;;;;;5048299;28;20454;-45
2023/10/08 03:59:31;;;;;;;7.97;5.30;;;18.50;53.00;;;;;;5044723;28;20428;-49
2023/10/08 04:02:13;;;;;;;6.83;4.97;;;18.50;53.00;;;;;;5050477;28;20439;-48
2023/10/08 04:04:51;;;;;;;6.00;5.00;;;18.60;53.10;;;;;;5044544;28;20441;-45
2023/10/08 04:07:26;;;;;;;12.87;5.70;;;18.60;53.10;;;;;;5046898;28;20888;-50
2023/10/08 04:12:47;;;;;;;11.93;6.60;;;18.60;53.30;;;;;;5045274;28;20505;-49
2023/10/08 04:15:16;;;;;;;7.97;6.60;;;18.60;53.40;;;;;;5036038;28;20476;-45
2023/10/08 04:17:45;;;;;;;9.30;6.40;;;18.50;53.50;;;;;;5050735;28;20475;-46
2023/10/08 04:20:33;;;;;;;9.60;6.10;;;18.50;53.60;;;;;;5048613;28;20439;-47
2023/10/08 04:22:59;;;;;;;6.70;5.70;;;18.50;53.90;;;;;;5047397;28;20787;-48
2023/10/08 04:25:27;;;;;;;5.57;5.03;;;18.40;54.20;;;;;;5049530;28;20450;-46
2023/10/08 04:27:58;;;;;;;6.40;5.63;;;18.30;54.60;;;;;;5037166;28;20488;-45
2023/10/08 04:30:33;;;;;;;6.93;5.50;;;18.30;54.60;;;;;;5037801;28;20443;-46
2023/10/08 04:33:12;;;;;;;10.30;5.70;;;18.30;54.60;;;;;;5044532;28;20462;-48
2023/10/08 04:36:01;;;;;;;7.03;5.63;;;18.30;54.30;;;;;;5050442;28;20500;-46
2023/10/08 04:38:28;;;;;;;8.03;5.13;;;18.30;54.20;;;;;;5047658;28;20526;-49
2023/10/08 04:40:55;;;;;;;6.80;5.70;;;18.30;54.20;;;;;;5051983;28;20439;-47
2023/10/08 04:43:25;;;;;;;6.70;4.90;;;18.20;54.00;;;;;;5042874;28;20531;-46
2023/10/08 04:45:58;;;;;;;6.10;4.33;;;18.20;54.00;;;;;;5052315;28;20805;-45
2023/10/08 04:48:32;;;;;;;7.17;4.80;;;18.20;53.80;;;;;;5053511;28;20490;-45
2023/10/08 04:50:59;;;;;;;6.80;4.97;;;18.10;53.80;;;;;;5044378;28;20472;-45
2023/10/08 04:53:36;;;;;;;7.90;4.93;;;18.10;53.90;;;;;;5041500;28;20451;-45
2023/10/08 04:56:14;;;;;;;5.60;4.80;;;18.10;53.90;;;;;;5051673;28;20442;-45
2023/10/08 04:58:49;;;;;;;7.43;4.60;;;18.10;53.90;;;;;;5041801;28;20445;-45
2023/10/08 05:09:22;;;;;;;10.83;5.47;;;17.90;54.70;;;;;;5052463;28;20231;-46
2023/10/08 05:14:34;;;;;;;7.20;5.10;;;18.00;54.40;;;;;;5052801;28;20496;-45
2023/10/08 05:17:10;;;;;;;6.70;5.10;;;18.00;54.30;;;;;;5040915;28;20451;-46
2023/10/08 05:19:47;;;;;;;6.40;4.67;;;18.00;54.40;;;;;;5052562;28;20457;-48
2023/10/08 05:22:18;;;;;;;6.70;4.23;;;18.00;54.50;;;;;;5051113;28;20525;-45
2023/10/08 05:27:38;;;;;;;8.17;5.50;;;18.00;54.50;;;;;;5049391;28;20489;-45
2023/10/08 05:30:17;;;;;;;8.20;4.90;;;18.00;54.20;;;;;;5051264;28;20447;-46
2023/10/08 05:35:48;;;;;;;5.10;4.17;;;18.00;54.00;;;;;;5051174;28;20983;-46
2023/10/08 05:38:16;;;;;;;6.03;4.40;;;17.90;54.00;;;;;;5050345;28;20454;-45
2023/10/08 06:13:29;;;;;;;8.30;4.90;;;18.00;54.20;;;;;;5049311;28;20453;-47
2023/10/08 06:18:27;;;;;;;6.30;5.00;;;17.90;54.40;;;;;;5051856;28;20443;-50
2023/10/08 06:21:00;;;;;;;6.83;4.93;;;17.70;55.10;;;;;;5047566;28;20520;-49
2023/10/08 06:23:35;;;;;;;7.20;5.60;;;17.80;55.00;;;;;;5046189;28;20444;-48
2023/10/08 06:26:07;;;;;;;6.80;5.30;;;17.80;54.80;;;;;;5046036;28;20474;-48
2023/10/08 06:28:34;;;;;;;6.33;5.03;;;17.90;54.70;;;;;;5050436;28;20526;-50
2023/10/08 06:31:01;;;;;;;10.07;5.50;;;18.00;54.50;;;;;;5048431;28;20451;-49
2023/10/08 06:33:37;;;;;;;6.77;5.13;;;18.00;54.50;;;;;;5051244;28;20450;-49
2023/10/08 06:36:13;;;;;;;6.67;4.73;;;18.00;54.50;;;;;;5048243;28;20445;-50
2023/10/08 06:38:44;;;;;;;5.50;4.47;;;17.90;54.70;;;;;;5048711;28;20440;-50
2023/10/08 06:43:49;;;;;;;5.70;4.47;;;18.00;54.60;;;;;;5051288;28;20457;-50
2023/10/08 06:46:19;;;;;;;9.30;4.80;;;18.00;54.70;;;;;;5049962;28;20442;-49
2023/10/08 06:48:45;;;;;;;11.10;5.10;;;18.00;54.60;;;;;;5045023;28;20483;-46
2023/10/08 06:51:17;;;;;;;6.07;4.30;;;18.00;54.70;;;;;;5052835;28;20771;-50
2023/10/08 06:53:45;;;;;;;8.70;5.10;;;17.90;54.80;;;;;;5044707;28;20842;-46
2023/10/08 06:56:15;;;;;;;9.57;4.87;;;18.00;54.90;;;;;;5048474;28;20514;-48
2023/10/08 06:58:48;;;;;;;7.63;4.30;;;18.10;54.70;;;;;;5042519;28;20529;-46
2023/10/08 07:01:20;;;;;;;6.40;4.50;;;18.10;54.50;;;;;;5042721;28;20921;-46
2023/10/08 07:03:50;;;;;;;10.40;4.63;;;18.10;54.40;;;;;;5044271;28;20443;-49
2023/10/08 07:06:31;;;;;;;7.20;4.20;;;18.10;54.40;;;;;;5048268;28;20473;-46
2023/10/08 07:08:59;;;;;;;6.53;4.80;;;18.20;54.70;;;;;;5046034;28;20482;-49
2023/10/08 07:11:26;;;;;;;10.10;4.23;;;18.20;54.60;;;;;;5048294;28;20552;-48
2023/10/08 07:13:52;;;;;;;9.50;4.80;;;18.30;54.50;;;;;;5043637;28;20450;-47
2023/10/08 07:16:20;;;;;;;5.20;3.70;;;18.30;54.80;;;;;;5049139;28;20443;-50
2023/10/08 07:18:52;;;;;;;6.30;4.43;;;18.40;54.20;;;;;;5042351;28;20805;-46
2023/10/08 07:21:18;;;;;;;7.57;4.70;;;18.40;54.30;;;;;;5045292;28;20442;-50
2023/10/08 07:23:56;;;;;;;9.90;5.67;;;18.50;54.40;;;;;;5045237;28;20446;-47
2023/10/08 07:26:23;;;;;;;5.27;4.37;;;18.60;54.40;;;;;;5043903;28;20438;-48
2023/10/08 07:28:51;;;;;;;8.77;5.60;;;18.60;54.40;;;;;;5042727;28;20479;-48
2023/10/08 07:31:22;;;;;;;7.40;5.07;;;18.70;54.20;;;;;;5046782;28;20854;-47
2023/10/08 07:33:56;;;;;;;6.30;4.33;;;18.80;54.20;;;;;;5050699;28;20952;-46
2023/10/08 07:36:26;;;;;;;7.40;5.10;;;18.90;53.90;;;;;;5045927;28;20534;-47
2023/10/08 07:38:53;;;;;;;7.40;4.60;;;19.00;53.90;;;;;;5044507;28;20485;-46
2023/10/08 07:41:20;;;;;;;7.70;4.57;;;19.00;54.00;;;;;;5044274;28;20573;-49
2023/10/08 07:43:55;;;;;;;7.20;5.13;;;19.00;53.80;;;;;;5042975;28;20444;-46
2023/10/08 07:46:21;;;;;;;6.77;4.67;;;19.10;53.70;;;;;;5040674;28;20446;-47
2023/10/08 07:48:47;;;;;;;6.87;5.17;;;19.10;53.40;;;;;;5043486;28;20479;-50
2023/10/08 07:51:14;;;;;;;8.43;5.03;;;19.20;53.40;;;;;;5045339;28;20453;-46
2023/10/08 07:53:41;;;;;;;9.77;5.03;;;19.20;53.40;;;;;;5044443;28;20200;-49
2023/10/08 07:56:08;;;;;;;7.23;5.00;;;19.20;53.60;;;;;;5042642;28;20436;-50
2023/10/08 07:58:36;;;;;;;6.50;4.67;;;19.10;54.00;;;;;;5038455;28;20443;-49
2023/10/08 08:01:06;;;;;;;8.20;5.60;;;19.10;54.30;;;;;;5039306;28;20427;-44
2023/10/08 08:03:31;;;;;;;7.10;5.07;;;19.00;54.30;;;;;;5045083;28;20439;-49
2023/10/08 08:05:58;;;;;;;10.20;5.40;;;19.00;54.50;;;;;;5047435;28;20443;-46
2023/10/08 08:08:27;;;;;;;7.13;5.47;;;19.10;54.60;;;;;;5039125;28;20228;-47
2023/10/08 08:10:57;;;;;;;10.53;5.23;;;19.20;54.50;;;;;;5044943;28;21040;-48
2023/10/08 08:13:27;;;;;;;7.70;5.50;;;19.30;54.70;;;;;;5047137;28;20458;-48
2023/10/08 08:15:58;;;;;;;7.70;5.47;;;19.40;55.40;;;;;;5047346;28;20806;-44
2023/10/08 08:18:32;;;;;;;6.77;4.93;;;19.50;55.60;;;;;;5049314;28;20447;-45
2023/10/08 08:21:01;;;;;;;8.73;5.20;;;19.60;55.50;;;;;;5050537;28;20970;-44
2023/10/08 08:23:31;;;;;;;7.00;5.07;;;19.80;55.80;;;;;;5038869;28;20744;-45
2023/10/08 08:26:13;;;;;;;7.83;4.47;;;19.90;55.50;;;;;;5051021;28;20942;-44
2023/10/08 08:28:39;;;;;;;8.47;4.73;;;20.00;54.70;;;;;;5045357;28;20491;-47
2023/10/08 08:31:13;;;;;;;7.00;5.40;;;20.20;54.80;;;;;;5038889;28;20467;-47
2023/10/08 08:33:56;;;;;;;6.90;5.20;;;20.40;54.90;;;;;;5050882;28;20453;-48
2023/10/08 08:36:23;;;;;;;5.90;4.90;;;20.40;55.00;;;;;;5049223;28;20451;-48
2023/10/08 08:38:50;;;;;;;7.30;4.43;;;20.60;54.80;;;;;;5049629;28;20806;-48
2023/10/08 08:41:18;;;;;;;7.50;4.90;;;20.70;54.50;;;;;;5041215;28;20451;-49
2023/10/08 08:43:56;;;;;;;8.10;5.20;;;20.80;54.20;;;;;;5037611;28;20901;-49
2023/10/08 08:46:31;;;;;;;7.13;5.20;;;20.90;54.50;;;;;;5042888;28;20546;-49
2023/10/08 08:49:00;;;;;;;6.30;4.63;;;21.00;53.40;;;;;;5051317;28;20481;-50
2023/10/08 08:51:26;;;;;;;5.77;4.87;;;21.10;53.00;;;;;;5051394;28;20423;-48
2023/10/08 08:53:52;;;;;;;7.57;5.80;;;21.20;52.50;;;;;;5044784;28;20467;-45
2023/10/08 08:56:18;;;;;;;7.13;4.73;;;21.40;52.30;;;;;;5049814;28;20938;-44
2023/10/08 08:58:44;;;;;;;9.10;4.83;;;21.60;51.80;;;;;;5040367;28;20421;-45
2023/10/08 09:01:13;;;;;;;7.07;4.87;;;21.70;51.50;;;;;;5047521;28;20618;-45
2023/10/08 09:03:39;;;;;;;5.30;4.43;;;21.80;51.40;;;;;;5042978;28;20455;-44
2023/10/08 09:06:05;;;;;;;7.70;4.53;;;21.90;50.70;;;;;;5050626;28;20504;-45
2023/10/08 09:08:35;;;;;;;6.03;4.33;;;22.10;50.50;;;;;;5041251;28;20482;-45
2023/10/08 09:11:01;;;;;;;6.07;4.10;;;22.30;49.70;;;;;;5038731;28;20855;-45
2023/10/08 09:13:27;;;;;;;6.13;3.90;;;22.50;49.40;;;;;;5049269;28;20426;-45
2023/10/08 09:16:03;;;;;;;7.23;4.40;;;22.70;48.50;;;;;;5043078;28;20448;-47
2023/10/08 09:18:32;;;;;;;6.93;4.67;;;23.00;47.50;;;;;;5044107;28;20474;-45
2023/10/08 09:21:13;;;;;;;5.00;3.80;;;23.20;46.50;;;;;;5046308;28;20457;-45
2023/10/08 09:23:43;;;;;;;8.90;3.90;;;23.40;44.10;;;;;;5050304;28;20476;-45
2023/10/08 09:26:09;;;;;;;5.57;4.00;;;23.60;45.20;;;;;;5041557;28;20464;-45
2023/10/08 09:28:38;;;;;;;6.43;3.40;;;23.80;44.90;;;;;;5052986;28;20487;-47
2023/10/08 09:31:06;;;;;;;7.03;4.10;;;24.00;44.70;;;;;;5051177;28;21017;-45
2023/10/08 09:33:32;;;;;;;6.97;4.10;;;24.10;43.80;;;;;;5045865;28;20465;-50
2023/10/08 09:36:02;;;;;;;5.53;4.20;;;24.10;43.10;;;;;;5047126;28;20450;-45
2023/10/08 09:38:30;;;;;;;5.47;3.50;;;24.20;42.30;;;;;;5051540;28;20453;-47
2023/10/08 09:40:56;;;;;;;7.33;3.47;;;24.30;41.80;;;;;;5047832;28;20857;-46
2023/10/08 09:43:22;;;;;;;6.57;3.67;;;24.50;41.90;;;;;;5049002;28;20470;-45
2023/10/08 09:46:00;;;;;;;5.27;3.43;;;24.70;42.70;;;;;;5048595;28;20473;-46
2023/10/08 09:48:30;;;;;;;9.83;4.10;;;24.90;41.70;;;;;;5051751;28;20573;-46
2023/10/08 09:50:58;;;;;;;9.10;3.90;;;25.10;41.60;;;;;;5052802;28;20501;-46
2023/10/08 09:53:39;;;;;;;4.80;3.30;;;25.20;41.30;;;;;;5046130;28;20446;-50
2023/10/08 09:56:15;;;;;;;6.83;4.60;;;25.20;40.90;;;;;;5046462;28;20444;-48
2023/10/08 09:58:42;;;;;;;5.97;4.20;;;25.30;41.50;;;;;;5040017;28;20538;-50
2023/10/08 10:01:09;;;;;;;5.53;3.40;;;25.30;41.00;;;;;;5044107;28;20889;-49
2023/10/08 10:03:36;;;;;;;6.17;3.93;;;25.20;41.70;;;;;;5045405;28;20527;-48
2023/10/08 10:06:01;;;;;;;8.23;5.43;;;25.30;41.80;;;;;;5040923;28;20848;-49
2023/10/08 10:08:30;;;;;;;7.00;3.67;;;25.40;41.60;;;;;;5040999;28;20482;-50
2023/10/08 10:10:59;;;;;;;5.63;3.30;;;25.50;41.50;;;;;;5051322;28;20263;-48
2023/10/08 10:13:35;;;;;;;7.60;3.60;;;25.60;41.60;;;;;;5052018;28;20447;-50
2023/10/08 10:16:01;;;;;;;5.17;4.33;;;25.60;41.60;;;;;;5052117;28;20933;-46
2023/10/08 10:18:28;;;;;;;5.30;3.83;;;25.60;42.20;;;;;;5043974;28;20524;-49
2023/10/08 10:21:02;;;;;;;6.33;3.33;;;25.70;41.90;;;;;;5051632;28;20196;-46
2023/10/08 10:23:42;;;;;;;7.27;4.03;;;25.80;42.00;;;;;;5045080;28;20455;-50
2023/10/08 10:26:24;;;;;;;5.73;4.40;;;25.70;42.10;;;;;;5046253;28;20466;-46
2023/10/08 10:29:10;;;;;;;4.90;3.40;;;25.80;42.10;;;;;;5047651;28;20519;-48
2023/10/08 10:31:44;;;;;;;5.63;3.57;;;25.60;42.00;;;;;;5049104;28;20823;-49
2023/10/08 10:34:12;;;;;;;5.13;3.30;;;25.70;42.30;;;;;;5051032;28;20457;-45
2023/10/08 10:36:39;;;;;;;5.90;3.80;;;25.80;42.00;;;;;;5048761;28;20942;-48
2023/10/08 10:39:16;;;;;;;5.60;3.60;;;25.70;42.00;;;;;;5043877;28;20881;-46
2023/10/08 10:41:45;;;;;;;6.70;4.10;;;25.80;41.70;;;;;;5039939;28;20541;-47
2023/10/08 10:44:13;;;;;;;4.37;3.80;;;25.90;41.70;;;;;;5044013;28;20439;-45
2023/10/08 10:46:41;;;;;;;8.60;3.80;;;26.10;41.40;;;;;;5048083;28;20451;-50
2023/10/08 10:49:31;;;;;;;12.17;4.77;;;26.20;41.20;;;;;;5046877;28;20937;-47
2023/10/08 10:51:57;;;;;;;6.27;4.50;;;26.20;42.20;;;;;;5044716;28;20851;-46
2023/10/08 10:54:24;;;;;;;6.40;3.73;;;26.30;42.30;;;;;;5045593;28;20443;-48
2023/10/08 10:57:08;;;;;;;7.60;4.07;;;26.30;41.70;;;;;;5050965;28;20439;-46
2023/10/08 10:59:39;;;;;;;6.53;4.20;;;25.50;42.30;;;;;;5050519;28;20806;-46
2023/10/08 11:02:08;;;;;;;5.93;4.13;;;25.40;43.20;;;;;;5052363;28;20513;-49
2023/10/08 11:04:47;;;;;;;6.50;4.63;;;25.80;42.70;;;;;;5044547;28;20478;-49
2023/10/08 11:07:21;;;;;;;6.07;3.90;;;26.10;42.70;;;;;;5052984;28;20466;-47
2023/10/08 11:09:47;;;;;;;5.93;4.00;;;26.40;41.50;;;;;;5045351;28;20464;-46
2023/10/08 11:12:18;;;;;;;8.20;4.37;;;26.60;41.30;;;;;;5052152;28;21606;-47
2023/10/08 11:14:46;;;;;;;6.23;4.20;;;26.80;41.30;;;;;;5050971;28;20486;-47
2023/10/08 11:17:24;;;;;;;6.10;3.63;;;26.80;40.30;;;;;;5049341;28;20872;-50
2023/10/08 11:19:50;;;;;;;5.27;3.60;;;27.10;40.20;;;;;;5045921;28;20860;-48
2023/10/08 11:22:17;;;;;;;11.63;4.07;;;27.20;40.00;;;;;;5043467;28;20447;-46
2023/10/08 11:24:47;;;;;;;4.87;3.90;;;27.40;40.10;;;;;;5048244;28;20455;-46
2023/10/08 11:27:17;;;;;;;8.87;4.13;;;27.50;39.50;;;;;;5050265;28;20875;-50
2023/10/08 11:29:46;;;;;;;5.60;4.07;;;27.70;39.70;;;;;;5047223;28;20458;-45
2023/10/08 11:32:13;;;;;;;5.80;4.17;;;27.80;39.00;;;;;;5048594;28;20793;-46
2023/10/08 11:34:39;;;;;;;4.70;3.80;;;28.00;38.50;;;;;;5049362;28;20453;-46
2023/10/08 11:37:19;;;;;;;5.00;3.97;;;28.10;38.50;;;;;;5047291;28;20474;-46
2023/10/08 11:39:46;;;;;;;6.50;3.80;;;28.20;38.40;;;;;;5043067;28;20444;-48
2023/10/08 11:44:59;;;;;;;7.37;4.30;;;28.30;37.00;;;;;;5049005;28;20478;-46
2023/10/08 11:47:30;;;;;;;5.47;3.77;;;28.40;37.30;;;;;;5046466;28;20490;-48
2023/10/08 11:50:19;;;;;;;6.90;4.93;;;28.50;37.60;;;;;;5047558;28;20527;-45
2023/10/08 11:52:43;;;;;;;5.40;3.67;;;28.60;37.50;;;;;;5049965;28;20821;-49
2023/10/08 11:55:10;;;;;;;5.70;4.03;;;28.60;37.50;;;;;;5040679;28;20451;-46
2023/10/08 11:57:36;;;;;;;6.40;4.60;;;28.70;37.20;;;;;;5043588;28;20490;-50
2023/10/08 12:00:16;;;;;;;10.20;5.20;;;28.80;37.30;;;;;;5040745;28;20482;-48
2023/10/08 12:02:43;;;;;;;5.40;4.13;;;28.90;37.30;;;;;;5047345;28;20439;-47
2023/10/08 12:05:18;;;;;;;6.87;4.03;;;29.10;37.00;;;;;;5043008;28;21005;-50
2023/10/08 12:07:48;;;;;;;7.80;4.10;;;29.30;37.10;;;;;;5042447;28;20478;-48
2023/10/08 12:10:21;;;;;;;5.37;3.57;;;29.40;36.10;;;;;;5043691;28;20918;-47
2023/10/08 12:12:54;;;;;;;6.23;4.07;;;29.60;36.00;;;;;;5045104;28;20471;-48
2023/10/08 12:15:26;;;;;;;5.33;4.13;;;29.70;36.00;;;;;;5047719;28;20454;-47
2023/10/08 12:20:50;;;;;;;5.53;3.90;;;29.70;35.60;;;;;;5017470;28;20859;-47
2023/10/08 12:23:24;;;;;;;7.27;4.17;;;29.70;35.80;;;;;;5043747;28;20882;-49
2023/10/08 12:25:55;;;;;;;7.40;4.50;;;29.90;35.70;;;;;;5046517;28;20454;-47
2023/10/08 12:28:23;;;;;;;5.33;4.17;;;29.90;35.40;;;;;;5043184;28;20552;-48
2023/10/08 12:30:52;;;;;;;8.07;3.97;;;29.90;35.70;;;;;;5040594;28;20946;-48
2023/10/08 12:33:19;;;;;;;5.53;4.20;;;30.20;35.40;;;;;;5046035;28;20431;-46
2023/10/08 12:35:48;;;;;;;6.23;3.90;;;30.20;35.10;;;;;;5042607;28;20479;-47
2023/10/08 12:38:14;;;;;;;11.13;4.70;;;30.20;35.30;;;;;;5045741;28;20430;-46
2023/10/08 12:40:55;;;;;;;5.60;4.47;;;30.20;34.50;;;;;;5043119;28;20443;-46
2023/10/08 12:43:22;;;;;;;5.83;4.53;;;30.30;33.80;;;;;;5042918;28;20185;-45
2023/10/08 12:45:52;;;;;;;7.70;3.90;;;30.20;33.90;;;;;;5048241;28;20447;-47
2023/10/08 12:48:22;;;;;;;12.33;5.37;;;30.30;33.90;;;;;;5047730;28;20486;-48
2023/10/08 12:50:56;;;;;;;8.30;4.60;;;30.50;33.50;;;;;;5044704;28;20478;-46
2023/10/08 12:53:38;;;;;;;7.53;4.13;;;30.60;32.90;;;;;;5041962;28;20536;-47
2023/10/08 12:56:14;;;;;;;6.20;4.30;;;30.60;33.60;;;;;;5036312;28;20440;-47
2023/10/08 12:58:41;;;;;;;7.63;4.50;;;30.60;32.40;;;;;;5044918;28;20817;-48
2023/10/08 13:01:11;;;;;;;11.77;5.50;;;30.80;32.60;;;;;;5044295;28;20448;-48
2023/10/08 13:03:47;;;;;;;9.20;5.17;;;30.80;32.30;;;;;;5045582;28;20447;-50
2023/10/08 13:06:22;;;;;;;6.40;4.47;;;30.80;32.70;;;;;;5050000;28;20533;-50
2023/10/08 13:08:54;;;;;;;6.70;4.63;;;30.90;32.10;;;;;;5052621;28;20528;-51
2023/10/08 13:11:24;;;;;;;8.67;5.37;;;30.90;32.10;;;;;;5054240;28;20864;-50
2023/10/08 13:13:56;;;;;;;7.83;4.50;;;30.90;31.20;;;;;;5055248;28;20431;-49
2023/10/08 13:16:23;;;;;;;8.50;4.67;;;31.10;31.40;;;;;;5048183;28;20471;-49
2023/10/08 13:18:49;;;;;;;5.57;4.33;;;31.30;31.90;;;;;;5053423;28;20450;-49
2023/10/08 13:21:15;;;;;;;6.63;4.93;;;31.30;31.30;;;;;;5045789;28;20419;-49
2023/10/08 13:23:42;;;;;;;7.60;4.50;;;31.50;31.10;;;;;;5041147;28;21132;-51
2023/10/08 13:26:08;;;;;;;7.07;3.80;;;31.50;31.20;;;;;;5052651;28;20219;-53
2023/10/08 13:28:35;;;;;;;9.40;4.90;;;31.60;32.20;;;;;;5047262;28;20503;-50
2023/10/08 13:31:09;;;;;;;8.30;4.27;;;31.80;31.30;;;;;;5044611;28;20450;-49
2023/10/08 13:33:48;;;;;;;8.57;4.73;;;31.80;31.50;;;;;;5050844;28;20855;-49
2023/10/08 13:36:17;;;;;;;8.50;4.60;;;31.90;30.90;;;;;;5051731;28;20454;-49
2023/10/08 13:38:45;;;;;;;6.93;4.90;;;31.80;31.10;;;;;;5050852;28;20443;-49
2023/10/08 13:41:17;;;;;;;7.00;4.70;;;31.90;31.90;;;;;;5053891;28;20439;-48
2023/10/08 13:43:48;;;;;;;8.73;3.33;;;32.00;31.40;;;;;;5050725;28;20442;-48
2023/10/08 13:46:18;;;;;;;7.13;4.50;;;31.90;31.20;;;;;;5049182;28;20570;-50
2023/10/08 13:48:48;;;;;;;7.67;4.70;;;32.10;31.30;;;;;;5050711;28;20628;-48
2023/10/08 13:51:27;;;;;;;7.53;4.50;;;32.10;31.50;;;;;;5041708;28;20444;-51
2023/10/08 13:53:59;;;;;;;8.10;4.73;;;32.20;31.00;;;;;;5052179;28;20439;-51
2023/10/08 13:56:26;;;;;;;7.50;4.70;;;32.30;31.10;;;;;;5050720;28;20942;-51
2023/10/08 13:59:13;;;;;;;9.07;5.07;;;32.10;31.30;;;;;;5052621;28;20415;-49
2023/10/08 14:01:45;;;;;;;7.27;4.40;;;32.10;32.10;;;;;;5047093;28;20479;-47
2023/10/08 14:04:11;;;;;;;8.47;4.00;;;31.90;32.60;;;;;;5039522;28;20474;-48
2023/10/08 14:06:40;;;;;;;8.43;4.17;;;31.90;32.80;;;;;;5043591;28;20466;-49
2023/10/08 14:09:08;;;;;;;8.47;4.30;;;31.90;32.70;;;;;;5050594;28;20235;-48
2023/10/08 14:11:34;;;;;;;8.67;4.20;;;31.90;32.40;;;;;;5042491;28;20521;-48
2023/10/08 14:14:07;;;;;;;9.93;4.53;;;31.70;33.40;;;;;;5046657;28;20841;-50
2023/10/08 14:16:36;;;;;;;8.20;4.13;;;31.80;32.70;;;;;;5046143;28;20201;-50